sensor_id;sensor_type;location;lat;lon;timestamp;pressure;altitude;pressure_sealevel;temperature;humidity
4814;BME280;15375;48.540;9.268;2023-01-29T00:01:12;98362.94;;;-0.05;100.00
4814;BME280;15375;48.540;9.268;2023-01-29T00:03:37;98372.81;;;0.03;100.00
4814;BME280;15375;48.540;9.268;2023-01-29T00:06:05;98360.72;;;-0.03;100.00
4814;BME280;15375;48.540;9.268;2023-01-29T00:08:37;98347.50;;;-0.08;100.00
4814;BME280;15375;48.540;9.268;2023-01-29T00:11:04;98348.31;;;-0.16;100.00
4814;BME280;15375;48.540;9.268;2023-01-29T00:13:30;98365.94;;;-0.07;100.00
4814;BME280;15375;48.540;9.268;2023-01-29T00:15:56;98383.88;;;0.02;100.00
4814;BME280;15375;48.540;9.268;2023-01-29T00:18:23;98380.41;;;0.01;100.00
4814;BME280;15375;48.540;9.268;2023-01-29T00:20:49;98379.50;;;-0.03;100.00
4814;BME280;15375;48.540;9.268;2023-01-29T00:23:14;98371.91;;;-0.01;100.00
4814;BME280;15375;48.540;9.268;2023-01-29T00:25:41;98349.75;;;-0.19;100.00
4814;BME280;15375;48.540;9.268;2023-01-29T00:28:06;98371.16;;;-0.10;100.00
4814;BME280;15375;48.540;9.268;2023-01-29T00:30:32;98298.19;;;-0.53;100.00
4814;BME280;15375;48.540;9.268;2023-01-29T00:32:57;98364.72;;;-0.18;100.00
4814;BME280;15375;48.540;9.268;2023-01-29T00:35:23;98356.56;;;-0.30;100.00
4814;BME280;15375;48.540;9.268;2023-01-29T00:37:48;98346.34;;;-0.36;100.00
4814;BME280;15375;48.540;9.268;2023-01-29T00:40:14;98375.41;;;-0.09;100.00
4814;BME280;15375;48.540;9.268;2023-01-29T00:42:39;98359.38;;;-0.18;100.00
4814;BME280;15375;48.540;9.268;2023-01-29T00:45:23;98364.84;;;-0.14;100.00
4814;BME280;15375;48.540;9.268;2023-01-29T00:47:52;98341.16;;;-0.33;100.00
4814;BME280;15375;48.540;9.268;2023-01-29T00:50:17;98350.38;;;-0.22;100.00
4814;BME280;15375;48.540;9.268;2023-01-29T00:52:42;98357.16;;;-0.16;100.00
4814;BME280;15375;48.540;9.268;2023-01-29T00:55:09;98353.50;;;-0.11;100.00
4814;BME280;15375;48.540;9.268;2023-01-29T00:57:35;98348.31;;;-0.16;100.00
4814;BME280;15375;48.540;9.268;2023-01-29T01:00:03;98368.31;;;-0.05;100.00
4814;BME280;15375;48.540;9.268;2023-01-29T01:02:28;98347.22;;;-0.15;100.00
4814;BME280;15375;48.540;9.268;2023-01-29T01:05:14;98368.31;;;-0.05;100.00
4814;BME280;15375;48.540;9.268;2023-01-29T01:07:48;98367.38;;;-0.09;100.00
4814;BME280;15375;48.540;9.268;2023-01-29T01:10:17;98369.59;;;-0.11;100.00
4814;BME280;15375;48.540;9.268;2023-01-29T01:12:53;98378.91;;;-0.17;100.00
4814;BME280;15375;48.540;9.268;2023-01-29T01:15:19;98368.84;;;-0.20;100.00
4814;BME280;15375;48.540;9.268;2023-01-29T01:17:45;98368.00;;;-0.12;100.00
4814;BME280;15375;48.540;9.268;2023-01-29T01:20:13;98338.91;;;-0.31;100.00
4814;BME280;15375;48.540;9.268;2023-01-29T01:22:38;98348.22;;;-0.28;100.00
4814;BME280;15375;48.540;9.268;2023-01-29T01:25:04;98369.41;;;-0.06;100.00
4814;BME280;15375;48.540;9.268;2023-01-29T01:27:30;98332.78;;;-0.31;100.00
4814;BME280;15375;48.540;9.268;2023-01-29T01:29:55;98328.84;;;-0.34;100.00
4814;BME280;15375;48.540;9.268;2023-01-29T01:32:20;98365.63;;;-0.05;100.00
4814;BME280;15375;48.540;9.268;2023-01-29T01:34:46;98321.72;;;-0.30;100.00
4814;BME280;15375;48.540;9.268;2023-01-29T01:37:11;98360.25;;;-0.05;100.00
4814;BME280;15375;48.540;9.268;2023-01-29T01:39:36;98337.13;;;-0.18;100.00
4814;BME280;15375;48.540;9.268;2023-01-29T01:42:02;98318.81;;;-0.16;100.00
4814;BME280;15375;48.540;9.268;2023-01-29T01:47:32;98358.56;;;0.20;100.00
4814;BME280;15375;48.540;9.268;2023-01-29T01:50:12;98337.91;;;0.12;100.00
4814;BME280;15375;48.540;9.268;2023-01-29T01:52:44;98348.75;;;0.15;100.00
4814;BME280;15375;48.540;9.268;2023-01-29T01:55:13;98339.47;;;0.13;100.00
4814;BME280;15375;48.540;9.268;2023-01-29T01:57:42;98331.13;;;0.14;100.00
4814;BME280;15375;48.540;9.268;2023-01-29T02:00:13;98215.94;;;-0.61;100.00
4814;BME280;15375;48.540;9.268;2023-01-29T02:02:41;98344.53;;;0.14;100.00
4814;BME280;15375;48.540;9.268;2023-01-29T02:05:27;98327.91;;;0.00;100.00
4814;BME280;15375;48.540;9.268;2023-01-29T02:08:13;98323.22;;;-0.12;100.00
4814;BME280;15375;48.540;9.268;2023-01-29T02:10:58;98343.66;;;0.02;100.00
4814;BME280;15375;48.540;9.268;2023-01-29T02:13:24;98333.44;;;-0.05;100.00
4814;BME280;15375;48.540;9.268;2023-01-29T02:15:49;98347.50;;;-0.08;100.00
4814;BME280;15375;48.540;9.268;2023-01-29T02:18:17;98353.78;;;-0.04;100.00
4814;BME280;15375;48.540;9.268;2023-01-29T02:21:06;98349.84;;;-0.07;100.00
4814;BME280;15375;48.540;9.268;2023-01-29T02:24:15;98335.81;;;-0.12;100.00
4814;BME280;15375;48.540;9.268;2023-01-29T02:27:18;98355.28;;;0.06;100.00
4814;BME280;15375;48.540;9.268;2023-01-29T02:30:27;98363.03;;;0.07;100.00
4814;BME280;15375;48.540;9.268;2023-01-29T02:33:01;98362.28;;;-0.02;100.00
4814;BME280;15375;48.540;9.268;2023-01-29T02:35:36;98362.28;;;-0.02;100.00
4814;BME280;15375;48.540;9.268;2023-01-29T02:38:49;98359.28;;;-0.01;100.00
4814;BME280;15375;48.540;9.268;2023-01-29T02:41:13;98354.22;;;-0.02;100.00
4814;BME280;15375;48.540;9.268;2023-01-29T02:43:43;98358.22;;;-0.08;100.00
4814;BME280;15375;48.540;9.268;2023-01-29T02:46:17;98359.38;;;-0.18;100.00
4814;BME280;15375;48.540;9.268;2023-01-29T02:49:00;98369.75;;;-0.16;100.00
4814;BME280;15375;48.540;9.268;2023-01-29T02:51:48;98370.38;;;-0.11;100.00
4814;BME280;15375;48.540;9.268;2023-01-29T02:54:20;98365.81;;;-0.10;100.00
4814;BME280;15375;48.540;9.268;2023-01-29T02:56:53;98369.59;;;-0.11;100.00
4814;BME280;15375;48.540;9.268;2023-01-29T02:59:44;98366.75;;;-0.15;100.00
4814;BME280;15375;48.540;9.268;2023-01-29T03:02:15;98363.00;;;-0.22;100.00
4814;BME280;15375;48.540;9.268;2023-01-29T03:04:46;98363.78;;;-0.22;100.00
4814;BME280;15375;48.540;9.268;2023-01-29T03:07:17;98365.03;;;-0.19;100.00
4814;BME280;15375;48.540;9.268;2023-01-29T03:10:16;98373.69;;;-0.14;100.00
4814;BME280;15375;48.540;9.268;2023-01-29T03:12:46;98326.19;;;-0.42;100.00
4814;BME280;15375;48.540;9.268;2023-01-29T03:15:20;98362.50;;;-0.16;100.00
4814;BME280;15375;48.540;9.268;2023-01-29T03:18:13;98356.88;;;-0.23;100.00
4814;BME280;15375;48.540;9.268;2023-01-29T03:20:53;98319.09;;;-0.47;100.00
4814;BME280;15375;48.540;9.268;2023-01-29T03:23:31;98354.13;;;-0.14;100.00
4814;BME280;15375;48.540;9.268;2023-01-29T03:26:20;98348.94;;;-0.19;100.00
4814;BME280;15375;48.540;9.268;2023-01-29T03:29:05;98342.22;;;-0.25;100.00
4814;BME280;15375;48.540;9.268;2023-01-29T03:31:52;98352.28;;;-0.22;100.00
4814;BME280;15375;48.540;9.268;2023-01-29T03:34:48;98331.38;;;-0.37;100.00
4814;BME280;15375;48.540;9.268;2023-01-29T03:37:24;98346.31;;;-0.28;100.00
4814;BME280;15375;48.540;9.268;2023-01-29T03:39:50;98349.66;;;-0.31;100.00
4814;BME280;15375;48.540;9.268;2023-01-29T03:45:20;98341.16;;;-0.41;100.00
4814;BME280;15375;48.540;9.268;2023-01-29T03:55:35;98356.72;;;-0.26;100.00
4814;BME280;15375;48.540;9.268;2023-01-29T03:58:19;98357.50;;;-0.26;100.00
4814;BME280;15375;48.540;9.268;2023-01-29T04:00:59;98355.63;;;-0.25;100.00
4814;BME280;15375;48.540;9.268;2023-01-29T04:03:33;98356.06;;;-0.23;100.00
4814;BME280;15375;48.540;9.268;2023-01-29T04:06:20;98361.28;;;-0.27;100.00
4814;BME280;15375;48.540;9.268;2023-01-29T04:08:59;98341.78;;;-0.36;100.00
4814;BME280;15375;48.540;9.268;2023-01-29T04:11:28;98354.38;;;-0.28;100.00
4814;BME280;15375;48.540;9.268;2023-01-29T04:13:55;98351.50;;;-0.23;100.00
4814;BME280;15375;48.540;9.268;2023-01-29T04:16:26;98330.88;;;-0.31;100.00
4814;BME280;15375;48.540;9.268;2023-01-29T04:18:53;98359.31;;;-0.09;100.00
4814;BME280;15375;48.540;9.268;2023-01-29T04:21:19;98346.91;;;-0.22;100.00
4814;BME280;15375;48.540;9.268;2023-01-29T04:23:45;98352.28;;;-0.22;100.00
4814;BME280;15375;48.540;9.268;2023-01-29T04:32:17;98359.19;;;-0.13;100.00
4814;BME280;15375;48.540;9.268;2023-01-29T04:34:59;98341.28;;;-0.29;100.00
4814;BME280;15375;48.540;9.268;2023-01-29T04:37:31;98367.09;;;-0.16;100.00
4814;BME280;15375;48.540;9.268;2023-01-29T04:42:53;98357.97;;;-0.24;100.00
4814;BME280;15375;48.540;9.268;2023-01-29T04:48:17;98365.84;;;-0.27;100.00
4814;BME280;15375;48.540;9.268;2023-01-29T04:50:57;98362.53;;;-0.24;100.00
4814;BME280;15375;48.540;9.268;2023-01-29T04:53:46;98369.03;;;-0.25;100.00
4814;BME280;15375;48.540;9.268;2023-01-29T04:56:22;98345.25;;;-0.35;100.00
4814;BME280;15375;48.540;9.268;2023-01-29T04:59:04;98356.72;;;-0.26;100.00
4814;BME280;15375;48.540;9.268;2023-01-29T05:01:32;98353.84;;;-0.21;100.00
4814;BME280;15375;48.540;9.268;2023-01-29T05:04:03;98360.19;;;-0.26;100.00
4814;BME280;15375;48.540;9.268;2023-01-29T05:06:31;98348.22;;;-0.28;100.00
4814;BME280;15375;48.540;9.268;2023-01-29T05:08:58;98344.22;;;-0.22;100.00
4814;BME280;15375;48.540;9.268;2023-01-29T05:11:25;98360.94;;;-0.17;100.00
4814;BME280;15375;48.540;9.268;2023-01-29T05:13:50;98311.41;;;-0.48;100.00
4814;BME280;15375;48.540;9.268;2023-01-29T05:16:21;98330.13;;;-0.40;100.00
4814;BME280;15375;48.540;9.268;2023-01-29T05:18:48;98351.34;;;-0.26;100.00
4814;BME280;15375;48.540;9.268;2023-01-29T05:21:13;98336.88;;;-0.34;100.00
4814;BME280;15375;48.540;9.268;2023-01-29T05:23:39;98284.31;;;-0.55;100.00
4814;BME280;15375;48.540;9.268;2023-01-29T05:26:04;98325.81;;;-0.32;100.00
4814;BME280;15375;48.540;9.268;2023-01-29T05:28:30;98332.31;;;-0.33;100.00
4814;BME280;15375;48.540;9.268;2023-01-29T05:30:56;98347.06;;;-0.19;100.00
4814;BME280;15375;48.540;9.268;2023-01-29T05:33:29;98352.59;;;-0.15;100.00
4814;BME280;15375;48.540;9.268;2023-01-29T05:35:57;98350.47;;;-0.10;100.00
4814;BME280;15375;48.540;9.268;2023-01-29T05:38:23;98337.41;;;-0.11;100.00
4814;BME280;15375;48.540;9.268;2023-01-29T05:40:48;98323.72;;;-0.18;100.00
4814;BME280;15375;48.540;9.268;2023-01-29T05:43:16;98309.53;;;-0.19;100.00
4814;BME280;15375;48.540;9.268;2023-01-29T05:45:42;98350.72;;;0.06;100.00
4814;BME280;15375;48.540;9.268;2023-01-29T05:48:08;98296.81;;;-0.30;100.00
4814;BME280;15375;48.540;9.268;2023-01-29T05:50:33;98323.22;;;-0.12;100.00
4814;BME280;15375;48.540;9.268;2023-01-29T05:52:59;98329.69;;;-0.13;100.00
4814;BME280;15375;48.540;9.268;2023-01-29T05:55:26;98354.91;;;-0.05;100.00
4814;BME280;15375;48.540;9.268;2023-01-29T05:57:53;98351.53;;;-0.02;100.00
4814;BME280;15375;48.540;9.268;2023-01-29T06:00:19;98339.44;;;-0.08;100.00
4814;BME280;15375;48.540;9.268;2023-01-29T06:02:44;98336.25;;;-0.02;100.00
4814;BME280;15375;48.540;9.268;2023-01-29T06:05:10;98356.16;;;0.18;100.00
4814;BME280;15375;48.540;9.268;2023-01-29T06:07:35;98328.81;;;0.04;100.00
4814;BME280;15375;48.540;9.268;2023-01-29T06:10:02;98344.81;;;0.21;100.00
4814;BME280;15375;48.540;9.268;2023-01-29T06:12:27;98317.38;;;0.16;100.00
4814;BME280;15375;48.540;9.268;2023-01-29T06:14:53;98288.69;;;-0.13;100.00
4814;BME280;15375;48.540;9.268;2023-01-29T06:17:18;98280.56;;;-0.25;100.00
4814;BME280;15375;48.540;9.268;2023-01-29T06:19:44;98324.88;;;0.02;100.00
4814;BME280;15375;48.540;9.268;2023-01-29T06:22:09;98301.72;;;-0.03;100.00
4814;BME280;15375;48.540;9.268;2023-01-29T06:24:35;98286.28;;;-0.06;100.00
4814;BME280;15375;48.540;9.268;2023-01-29T06:27:00;98257.44;;;-0.38;100.00
4814;BME280;15375;48.540;9.268;2023-01-29T06:29:26;98326.66;;;-0.03;100.00
4814;BME280;15375;48.540;9.268;2023-01-29T06:31:51;98318.38;;;-0.18;100.00
4814;BME280;15375;48.540;9.268;2023-01-29T06:34:17;98323.28;;;-0.20;100.00
4814;BME280;15375;48.540;9.268;2023-01-29T06:36:42;98327.38;;;-0.23;100.00
4814;BME280;15375;48.540;9.268;2023-01-29T06:39:07;98277.53;;;-0.53;100.00
4814;BME280;15375;48.540;9.268;2023-01-29T06:41:33;98307.13;;;-0.49;100.00
4814;BME280;15375;48.540;9.268;2023-01-29T06:43:58;98324.13;;;-0.37;100.00
4814;BME280;15375;48.540;9.268;2023-01-29T06:46:24;98311.53;;;-0.45;100.00
4814;BME280;15375;48.540;9.268;2023-01-29T06:48:49;98319.41;;;-0.40;100.00
4814;BME280;15375;48.540;9.268;2023-01-29T06:51:14;98324.13;;;-0.37;99.97
4814;BME280;15375;48.540;9.268;2023-01-29T06:53:40;98337.22;;;-0.35;99.41
4814;BME280;15375;48.540;9.268;2023-01-29T06:56:06;98291.03;;;-0.79;98.95
4814;BME280;15375;48.540;9.268;2023-01-29T06:58:32;98323.28;;;-0.67;98.82
4814;BME280;15375;48.540;9.268;2023-01-29T07:01:05;98347.97;;;-0.52;99.13
4814;BME280;15375;48.540;9.268;2023-01-29T07:03:31;98347.69;;;-0.59;98.92
4814;BME280;15375;48.540;9.268;2023-01-29T07:05:56;98357.25;;;-0.50;98.83
4814;BME280;15375;48.540;9.268;2023-01-29T07:08:22;98353.03;;;-0.59;97.84
4814;BME280;15375;48.540;9.268;2023-01-29T07:10:48;98359.19;;;-0.50;97.41
4814;BME280;15375;48.540;9.268;2023-01-29T07:13:14;98292.16;;;-0.88;97.21
4814;BME280;15375;48.540;9.268;2023-01-29T07:15:39;98328.63;;;-0.67;96.65
4814;BME280;15375;48.540;9.268;2023-01-29T07:18:05;98361.63;;;-0.37;96.53
4814;BME280;15375;48.540;9.268;2023-01-29T07:20:40;98362.28;;;-0.40;95.83
4814;BME280;15375;48.540;9.268;2023-01-29T07:23:06;98354.28;;;-0.48;95.29
4814;BME280;15375;48.540;9.268;2023-01-29T07:25:32;98365.75;;;-0.39;94.86
4814;BME280;15375;48.540;9.268;2023-01-29T07:28:01;98354.44;;;-0.53;95.58
4814;BME280;15375;48.540;9.268;2023-01-29T07:30:27;98359.94;;;-0.41;96.84
4814;BME280;15375;48.540;9.268;2023-01-29T07:32:52;98372.66;;;-0.30;96.65
4814;BME280;15375;48.540;9.268;2023-01-29T07:35:18;98376.72;;;-0.24;97.53
4814;BME280;15375;48.540;9.268;2023-01-29T07:37:43;98355.63;;;-0.34;95.72
4814;BME280;15375;48.540;9.268;2023-01-29T07:40:09;98347.88;;;-0.27;96.30
4814;BME280;15375;48.540;9.268;2023-01-29T07:42:38;98333.09;;;-0.33;95.77
4814;BME280;15375;48.540;9.268;2023-01-29T07:45:06;98376.16;;;0.00;94.56
4814;BME280;15375;48.540;9.268;2023-01-29T07:47:32;98351.88;;;-0.33;92.88
4814;BME280;15375;48.540;9.268;2023-01-29T07:49:58;98350.44;;;-0.30;92.47
4814;BME280;15375;48.540;9.268;2023-01-29T07:52:23;98297.41;;;-0.63;93.76
4814;BME280;15375;48.540;9.268;2023-01-29T07:54:48;98350.09;;;-0.29;92.81
4814;BME280;15375;48.540;9.268;2023-01-29T07:57:14;98345.53;;;-0.28;92.47
4814;BME280;15375;48.540;9.268;2023-01-29T07:59:39;98393.03;;;0.00;92.37
4814;BME280;15375;48.540;9.268;2023-01-29T08:02:05;98354.84;;;-0.26;92.39
4814;BME280;15375;48.540;9.268;2023-01-29T08:04:30;98366.00;;;-0.15;93.01
4814;BME280;15375;48.540;9.268;2023-01-29T08:06:55;98380.88;;;0.03;91.95
4814;BME280;15375;48.540;9.268;2023-01-29T08:09:21;98383.00;;;0.18;93.03
4814;BME280;15375;48.540;9.268;2023-01-29T08:11:46;98376.53;;;0.19;91.78
4814;BME280;15375;48.540;9.268;2023-01-29T08:14:12;98387.97;;;0.37;92.61
4814;BME280;15375;48.540;9.268;2023-01-29T08:16:37;98334.81;;;0.01;91.77
4814;BME280;15375;48.540;9.268;2023-01-29T08:19:03;98403.06;;;0.41;89.81
4814;BME280;15375;48.540;9.268;2023-01-29T08:21:28;98394.75;;;0.34;90.21
4814;BME280;15375;48.540;9.268;2023-01-29T08:23:53;98376.88;;;0.38;90.25
4814;BME280;15375;48.540;9.268;2023-01-29T08:26:19;98370.16;;;0.32;90.13
4814;BME280;15375;48.540;9.268;2023-01-29T08:28:44;98370.88;;;0.41;89.50
4814;BME280;15375;48.540;9.268;2023-01-29T08:31:14;98371.78;;;0.45;87.87
4814;BME280;15375;48.540;9.268;2023-01-29T08:33:40;98369.97;;;0.37;88.49
4814;BME280;15375;48.540;9.268;2023-01-29T08:36:07;98368.91;;;0.50;89.74
4814;BME280;15375;48.540;9.268;2023-01-29T08:38:32;98361.16;;;0.57;90.62
4814;BME280;15375;48.540;9.268;2023-01-29T08:40:58;98388.06;;;0.70;88.45
4814;BME280;15375;48.540;9.268;2023-01-29T08:43:23;98305.53;;;0.17;88.38
4814;BME280;15375;48.540;9.268;2023-01-29T08:45:49;98387.91;;;0.66;89.51
4814;BME280;15375;48.540;9.268;2023-01-29T08:48:14;98377.69;;;0.59;91.29
4814;BME280;15375;48.540;9.268;2023-01-29T08:50:39;98398.66;;;0.66;90.96
4814;BME280;15375;48.540;9.268;2023-01-29T08:53:06;98387.53;;;0.76;91.13
4814;BME280;15375;48.540;9.268;2023-01-29T08:55:35;98400.38;;;0.91;88.92
4814;BME280;15375;48.540;9.268;2023-01-29T08:58:02;98381.00;;;0.65;87.71
4814;BME280;15375;48.540;9.268;2023-01-29T09:00:28;98355.78;;;0.28;88.03
4814;BME280;15375;48.540;9.268;2023-01-29T09:02:53;98365.13;;;0.51;88.48
4814;BME280;15375;48.540;9.268;2023-01-29T09:05:19;98332.41;;;0.37;89.34
4814;BME280;15375;48.540;9.268;2023-01-29T09:07:44;98396.44;;;0.89;89.53
4814;BME280;15375;48.540;9.268;2023-01-29T09:10:10;98382.69;;;0.90;89.33
4814;BME280;15375;48.540;9.268;2023-01-29T09:12:36;98416.88;;;1.02;88.52
4814;BME280;15375;48.540;9.268;2023-01-29T09:15:02;98422.63;;;0.92;89.31
4814;BME280;15375;48.540;9.268;2023-01-29T09:17:28;98390.94;;;0.85;88.85
4814;BME280;15375;48.540;9.268;2023-01-29T09:19:53;98430.25;;;1.10;87.53
4814;BME280;15375;48.540;9.268;2023-01-29T09:22:21;98386.81;;;0.88;87.22
4814;BME280;15375;48.540;9.268;2023-01-29T09:24:47;98412.69;;;1.13;88.09
4814;BME280;15375;48.540;9.268;2023-01-29T09:27:12;98414.00;;;1.07;87.35
4814;BME280;15375;48.540;9.268;2023-01-29T09:29:37;98419.41;;;1.19;86.87
4814;BME280;15375;48.540;9.268;2023-01-29T09:32:03;98431.50;;;1.13;88.31
4814;BME280;15375;48.540;9.268;2023-01-29T09:34:29;98431.94;;;1.15;89.21
4814;BME280;15375;48.540;9.268;2023-01-29T09:36:54;98418.75;;;0.81;86.20
4814;BME280;15375;48.540;9.268;2023-01-29T09:39:19;98424.88;;;0.90;86.91
4814;BME280;15375;48.540;9.268;2023-01-29T09:47:01;98426.97;;;1.25;86.63
4814;BME280;15375;48.540;9.268;2023-01-29T09:49:37;98426.91;;;1.46;86.73
4814;BME280;15375;48.540;9.268;2023-01-29T09:52:19;98420.88;;;1.49;85.26
4814;BME280;15375;48.540;9.268;2023-01-29T09:57:24;98420.66;;;1.54;84.11
4814;BME280;15375;48.540;9.268;2023-01-29T09:59:51;98424.50;;;1.65;85.27
4814;BME280;15375;48.540;9.268;2023-01-29T10:05:19;98405.56;;;1.29;82.17
4814;BME280;15375;48.540;9.268;2023-01-29T10:13:45;98395.63;;;0.88;84.16
4814;BME280;15375;48.540;9.268;2023-01-29T10:16:24;98403.56;;;0.64;82.93
4814;BME280;15375;48.540;9.268;2023-01-29T10:24:30;98375.88;;;0.93;83.78
4814;BME280;15375;48.540;9.268;2023-01-29T10:26:58;98355.28;;;0.97;82.06
4814;BME280;15375;48.540;9.268;2023-01-29T10:29:26;98360.09;;;1.24;81.75
4814;BME280;15375;48.540;9.268;2023-01-29T10:31:59;98353.63;;;1.37;81.50
4814;BME280;15375;48.540;9.268;2023-01-29T10:34:43;98324.88;;;1.50;83.42
4814;BME280;15375;48.540;9.268;2023-01-29T10:37:21;98333.22;;;1.24;81.77
4814;BME280;15375;48.540;9.268;2023-01-29T10:39:49;98334.84;;;1.49;81.61
4814;BME280;15375;48.540;9.268;2023-01-29T10:42:33;98337.47;;;1.82;81.22
4814;BME280;15375;48.540;9.268;2023-01-29T10:45:38;98352.81;;;2.30;82.51
4814;BME280;15375;48.540;9.268;2023-01-29T10:51:38;98347.94;;;2.59;76.98
4814;BME280;15375;48.540;9.268;2023-01-29T10:54:41;98342.28;;;2.13;76.40
4814;BME280;15375;48.540;9.268;2023-01-29T11:02:16;98347.16;;;2.47;79.50
4814;BME280;15375;48.540;9.268;2023-01-29T11:04:42;98350.06;;;2.66;78.20
4814;BME280;15375;48.540;9.268;2023-01-29T11:07:08;98347.44;;;2.82;78.67
4814;BME280;15375;48.540;9.268;2023-01-29T11:09:40;98327.38;;;3.07;74.96
4814;BME280;15375;48.540;9.268;2023-01-29T11:12:15;98333.91;;;3.21;76.33
4814;BME280;15375;48.540;9.268;2023-01-29T11:14:52;98309.38;;;3.11;77.02
4814;BME280;15375;48.540;9.268;2023-01-29T11:17:22;98335.47;;;3.22;75.04
4814;BME280;15375;48.540;9.268;2023-01-29T11:19:49;98323.69;;;3.43;74.37
4814;BME280;15375;48.540;9.268;2023-01-29T11:22:23;98306.25;;;3.09;74.98
4814;BME280;15375;48.540;9.268;2023-01-29T11:25:16;98316.34;;;3.28;75.14
4814;BME280;15375;48.540;9.268;2023-01-29T11:30:38;98309.81;;;2.85;74.14
4814;BME280;15375;48.540;9.268;2023-01-29T11:33:17;98328.31;;;2.59;73.81
4814;BME280;15375;48.540;9.268;2023-01-29T11:35:43;98284.66;;;2.14;74.09
4814;BME280;15375;48.540;9.268;2023-01-29T11:40:40;98319.41;;;2.31;74.83
4814;BME280;15375;48.540;9.268;2023-01-29T11:45:53;98321.63;;;2.41;75.13
4814;BME280;15375;48.540;9.268;2023-01-29T11:48:21;98331.84;;;2.75;76.01
4814;BME280;15375;48.540;9.268;2023-01-29T11:50:55;98321.72;;;2.44;74.61
4814;BME280;15375;48.540;9.268;2023-01-29T11:53:30;98329.19;;;2.63;76.58
4814;BME280;15375;48.540;9.268;2023-01-29T11:55:57;98319.72;;;2.29;75.45
4814;BME280;15375;48.540;9.268;2023-01-29T11:58:31;98297.50;;;2.32;75.03
4814;BME280;15375;48.540;9.268;2023-01-29T12:00:58;98314.25;;;2.02;76.57
4814;BME280;15375;48.540;9.268;2023-01-29T12:03:39;98298.06;;;2.38;76.80
4814;BME280;15375;48.540;9.268;2023-01-29T12:06:13;98298.03;;;2.50;75.38
4814;BME280;15375;48.540;9.268;2023-01-29T12:08:43;98276.94;;;2.52;78.42
4814;BME280;15375;48.540;9.268;2023-01-29T12:11:14;98299.09;;;2.73;78.04
4814;BME280;15375;48.540;9.268;2023-01-29T12:13:53;98285.50;;;2.70;76.76
4814;BME280;15375;48.540;9.268;2023-01-29T12:16:43;98288.19;;;2.82;77.11
4814;BME280;15375;48.540;9.268;2023-01-29T12:19:30;98302.28;;;2.91;77.17
4814;BME280;15375;48.540;9.268;2023-01-29T12:22:04;98294.25;;;3.06;78.35
4814;BME280;15375;48.540;9.268;2023-01-29T12:27:39;98290.66;;;3.02;78.02
4814;BME280;15375;48.540;9.268;2023-01-29T12:35:39;98231.44;;;2.63;75.84
4814;BME280;15375;48.540;9.268;2023-01-29T12:38:17;98247.53;;;2.87;79.07
4814;BME280;15375;48.540;9.268;2023-01-29T12:40:46;98227.97;;;2.62;78.58
4814;BME280;15375;48.540;9.268;2023-01-29T12:43:21;98230.75;;;2.93;78.95
4814;BME280;15375;48.540;9.268;2023-01-29T12:45:51;98215.56;;;3.16;78.13
4814;BME280;15375;48.540;9.268;2023-01-29T12:48:37;98193.44;;;2.80;76.41
4814;BME280;15375;48.540;9.268;2023-01-29T12:51:08;98200.16;;;3.01;74.08
4814;BME280;15375;48.540;9.268;2023-01-29T12:53:44;98193.56;;;2.99;74.01
4814;BME280;15375;48.540;9.268;2023-01-29T12:56:15;98166.91;;;2.66;74.84
4814;BME280;15375;48.540;9.268;2023-01-29T12:58:46;98171.34;;;2.31;75.53
4814;BME280;15375;48.540;9.268;2023-01-29T13:01:16;98147.16;;;1.91;77.43
4814;BME280;15375;48.540;9.268;2023-01-29T13:03:54;98168.34;;;2.20;78.72
4814;BME280;15375;48.540;9.268;2023-01-29T13:06:44;98170.75;;;2.37;78.89
4814;BME280;15375;48.540;9.268;2023-01-29T13:09:19;98148.16;;;2.85;78.91
4814;BME280;15375;48.540;9.268;2023-01-29T13:12:14;98148.25;;;2.89;75.78
4814;BME280;15375;48.540;9.268;2023-01-29T13:14:53;98156.69;;;3.18;75.58
4814;BME280;15375;48.540;9.268;2023-01-29T13:17:25;98141.72;;;2.90;75.02
4814;BME280;15375;48.540;9.268;2023-01-29T13:19:56;98158.94;;;2.85;74.58
4814;BME280;15375;48.540;9.268;2023-01-29T13:22:27;98142.69;;;2.66;75.69
4814;BME280;15375;48.540;9.268;2023-01-29T13:24:56;98134.09;;;2.33;76.62
4814;BME280;15375;48.540;9.268;2023-01-29T13:27:27;98150.59;;;2.31;76.17
4814;BME280;15375;48.540;9.268;2023-01-29T13:29:53;98157.69;;;2.24;76.79
4814;BME280;15375;48.540;9.268;2023-01-29T13:32:25;98149.88;;;2.34;76.97
4814;BME280;15375;48.540;9.268;2023-01-29T13:34:54;98139.34;;;2.14;76.64
4814;BME280;15375;48.540;9.268;2023-01-29T13:37:32;98168.13;;;2.69;76.85
4814;BME280;15375;48.540;9.268;2023-01-29T13:39:59;98144.31;;;2.27;76.99
4814;BME280;15375;48.540;9.268;2023-01-29T13:42:55;98161.25;;;2.00;77.98
4814;BME280;15375;48.540;9.268;2023-01-29T13:45:35;98163.38;;;1.94;78.87
4814;BME280;15375;48.540;9.268;2023-01-29T13:48:27;98164.50;;;2.33;79.29
4814;BME280;15375;48.540;9.268;2023-01-29T13:50:59;98153.97;;;2.01;79.36
4814;BME280;15375;48.540;9.268;2023-01-29T13:53:29;98151.28;;;2.28;79.29
4814;BME280;15375;48.540;9.268;2023-01-29T13:59:04;98160.19;;;2.60;77.25
4814;BME280;15375;48.540;9.268;2023-01-29T14:04:21;98159.72;;;2.42;76.14
4814;BME280;15375;48.540;9.268;2023-01-29T14:06:53;98167.91;;;2.46;77.25
4814;BME280;15375;48.540;9.268;2023-01-29T14:12:04;98164.13;;;2.35;78.30
4814;BME280;15375;48.540;9.268;2023-01-29T14:15:00;98174.59;;;2.24;78.21
4814;BME280;15375;48.540;9.268;2023-01-29T14:17:27;98140.81;;;1.59;79.15
4814;BME280;15375;48.540;9.268;2023-01-29T14:20:16;98181.13;;;1.71;81.14
4814;BME280;15375;48.540;9.268;2023-01-29T14:22:43;98180.13;;;1.76;81.67
4814;BME280;15375;48.540;9.268;2023-01-29T14:25:16;98177.06;;;1.89;81.13
4814;BME280;15375;48.540;9.268;2023-01-29T14:27:47;98184.44;;;2.05;80.99
4814;BME280;15375;48.540;9.268;2023-01-29T14:30:17;98162.22;;;2.08;80.82
4814;BME280;15375;48.540;9.268;2023-01-29T14:32:47;98166.66;;;2.28;80.80
4814;BME280;15375;48.540;9.268;2023-01-29T14:35:23;98183.38;;;2.49;79.85
4814;BME280;15375;48.540;9.268;2023-01-29T14:37:52;98178.88;;;2.53;78.76
4814;BME280;15375;48.540;9.268;2023-01-29T14:42:53;98157.22;;;2.22;78.61
4814;BME280;15375;48.540;9.268;2023-01-29T14:45:30;98176.25;;;2.41;78.76
4814;BME280;15375;48.540;9.268;2023-01-29T14:48:36;98159.69;;;2.27;79.87
4814;BME280;15375;48.540;9.268;2023-01-29T14:51:18;98164.94;;;2.35;80.64
4814;BME280;15375;48.540;9.268;2023-01-29T14:53:52;98165.78;;;2.24;80.49
4814;BME280;15375;48.540;9.268;2023-01-29T14:56:34;98189.53;;;2.22;82.34
4814;BME280;15375;48.540;9.268;2023-01-29T14:59:03;98179.00;;;2.29;82.88